sensor_id;sensor_type;location;lat;lon;timestamp;pressure;altitude;pressure_sealevel;temperature;humidity
70930;BME280;58588;48.102;19.682;2022-11-27T00:00:25;100689.03;;;5.85;100.00
70930;BME280;58588;48.102;19.682;2022-11-27T00:03:27;100690.34;;;5.90;100.00
70930;BME280;58588;48.102;19.682;2022-11-27T00:06:30;100690.03;;;5.73;100.00
70930;BME280;58588;48.102;19.682;2022-11-27T00:09:34;100687.13;;;5.76;100.00
70930;BME280;58588;48.102;19.682;2022-11-27T00:12:36;100681.13;;;5.83;100.00
70930;BME280;58588;48.102;19.682;2022-11-27T00:15:38;100682.44;;;5.89;100.00
70930;BME280;58588;48.102;19.682;2022-11-27T00:18:40;100688.31;;;5.94;100.00
70930;BME280;58588;48.102;19.682;2022-11-27T00:21:42;100684.38;;;5.87;100.00
70930;BME280;58588;48.102;19.682;2022-11-27T00:24:45;100686.22;;;5.75;100.00
70930;BME280;58588;48.102;19.682;2022-11-27T00:27:47;100687.13;;;5.64;100.00
70930;BME280;58588;48.102;19.682;2022-11-27T00:30:49;100685.38;;;5.75;100.00
70930;BME280;58588;48.102;19.682;2022-11-27T00:33:52;100688.84;;;5.54;100.00
70930;BME280;58588;48.102;19.682;2022-11-27T00:36:54;100693.97;;;5.46;100.00
70930;BME280;58588;48.102;19.682;2022-11-27T00:39:58;100693.84;;;5.59;100.00
70930;BME280;58588;48.102;19.682;2022-11-27T00:43:00;100687.97;;;5.65;100.00
70930;BME280;58588;48.102;19.682;2022-11-27T00:46:02;100693.56;;;5.62;100.00
70930;BME280;58588;48.102;19.682;2022-11-27T00:49:05;100697.84;;;5.53;100.00
70930;BME280;58588;48.102;19.682;2022-11-27T00:52:07;100697.50;;;5.35;100.00
70930;BME280;58588;48.102;19.682;2022-11-27T00:55:11;100697.72;;;5.44;100.00
70930;BME280;58588;48.102;19.682;2022-11-27T00:58:13;100689.72;;;5.21;100.00
70930;BME280;58588;48.102;19.682;2022-11-27T01:01:17;100702.38;;;5.30;100.00
70930;BME280;58588;48.102;19.682;2022-11-27T01:04:19;100693.97;;;5.35;100.00
70930;BME280;58588;48.102;19.682;2022-11-27T01:07:21;100690.06;;;5.39;100.00
70930;BME280;58588;48.102;19.682;2022-11-27T01:10:24;100689.00;;;5.42;100.00
70930;BME280;58588;48.102;19.682;2022-11-27T01:13:28;100693.56;;;5.51;100.00
70930;BME280;58588;48.102;19.682;2022-11-27T01:16:31;100698.91;;;5.62;100.00
70930;BME280;58588;48.102;19.682;2022-11-27T01:19:33;100689.81;;;5.53;100.00
70930;BME280;58588;48.102;19.682;2022-11-27T01:22:35;100684.81;;;5.60;100.00
70930;BME280;58588;48.102;19.682;2022-11-27T01:25:38;100682.28;;;5.58;100.00
70930;BME280;58588;48.102;19.682;2022-11-27T01:28:40;100687.66;;;5.47;100.00
70930;BME280;58588;48.102;19.682;2022-11-27T01:31:42;100688.22;;;5.51;100.00
70930;BME280;58588;48.102;19.682;2022-11-27T01:34:44;100691.66;;;5.53;100.00
70930;BME280;58588;48.102;19.682;2022-11-27T01:37:47;100686.53;;;5.61;100.00
70930;BME280;58588;48.102;19.682;2022-11-27T01:40:55;100681.38;;;5.69;100.00
70930;BME280;58588;48.102;19.682;2022-11-27T01:43:59;100679.09;;;5.64;100.00
70930;BME280;58588;48.102;19.682;2022-11-27T01:47:03;100685.53;;;5.62;100.00
70930;BME280;58588;48.102;19.682;2022-11-27T01:50:11;100685.03;;;5.68;100.00
70930;BME280;58588;48.102;19.682;2022-11-27T01:53:16;100678.59;;;5.71;100.00
70930;BME280;58588;48.102;19.682;2022-11-27T01:56:25;100686.38;;;5.74;100.00
70930;BME280;58588;48.102;19.682;2022-11-27T01:59:28;100687.97;;;5.76;100.00
70930;BME280;58588;48.102;19.682;2022-11-27T02:02:31;100688.56;;;5.69;100.00
70930;BME280;58588;48.102;19.682;2022-11-27T02:05:33;100692.59;;;5.63;100.00
70930;BME280;58588;48.102;19.682;2022-11-27T02:08:35;100696.59;;;5.69;100.00
70930;BME280;58588;48.102;19.682;2022-11-27T02:11:43;100702.34;;;5.64;100.00
70930;BME280;58588;48.102;19.682;2022-11-27T02:14:52;100703.63;;;5.70;100.00
70930;BME280;58588;48.102;19.682;2022-11-27T02:18:04;100704.03;;;5.65;100.00
70930;BME280;58588;48.102;19.682;2022-11-27T02:21:12;100709.88;;;5.59;100.00
70930;BME280;58588;48.102;19.682;2022-11-27T02:24:32;100701.97;;;5.57;100.00
70930;BME280;58588;48.102;19.682;2022-11-27T02:27:55;100702.22;;;5.54;100.00
70930;BME280;58588;48.102;19.682;2022-11-27T02:31:08;100709.97;;;5.57;100.00
70930;BME280;58588;48.102;19.682;2022-11-27T02:34:22;100704.50;;;5.70;100.00
70930;BME280;58588;48.102;19.682;2022-11-27T02:37:32;100702.19;;;5.77;100.00
70930;BME280;58588;48.102;19.682;2022-11-27T02:40:37;100706.28;;;5.81;100.00
70930;BME280;58588;48.102;19.682;2022-11-27T02:43:44;100701.06;;;5.79;100.00
70930;BME280;58588;48.102;19.682;2022-11-27T02:46:48;100722.09;;;5.84;100.00
70930;BME280;58588;48.102;19.682;2022-11-27T02:49:51;100713.97;;;5.74;100.00
70930;BME280;58588;48.102;19.682;2022-11-27T02:53:00;100708.50;;;5.76;100.00
70930;BME280;58588;48.102;19.682;2022-11-27T02:56:06;100706.28;;;5.81;100.00
70930;BME280;58588;48.102;19.682;2022-11-27T02:59:11;100707.13;;;5.81;100.00
70930;BME280;58588;48.102;19.682;2022-11-27T03:02:20;100703.16;;;5.76;100.00
70930;BME280;58588;48.102;19.682;2022-11-27T03:05:27;100695.34;;;5.84;100.00
70930;BME280;58588;48.102;19.682;2022-11-27T03:08:37;100703.97;;;5.87;100.00
70930;BME280;58588;48.102;19.682;2022-11-27T03:11:39;100708.22;;;5.90;100.00
70930;BME280;58588;48.102;19.682;2022-11-27T03:14:42;100719.66;;;5.81;100.00
70930;BME280;58588;48.102;19.682;2022-11-27T03:17:52;100716.28;;;5.79;100.00
70930;BME280;58588;48.102;19.682;2022-11-27T03:21:08;100708.88;;;5.82;100.00
70930;BME280;58588;48.102;19.682;2022-11-27T03:24:11;100727.94;;;5.89;100.00
70930;BME280;58588;48.102;19.682;2022-11-27T03:27:17;100704.47;;;5.93;100.00
70930;BME280;58588;48.102;19.682;2022-11-27T03:30:20;100712.97;;;5.98;100.00
70930;BME280;58588;48.102;19.682;2022-11-27T03:33:24;100713.25;;;5.95;100.00
70930;BME280;58588;48.102;19.682;2022-11-27T03:36:26;100707.88;;;5.95;100.00
70930;BME280;58588;48.102;19.682;2022-11-27T03:39:29;100706.06;;;5.95;100.00
70930;BME280;58588;48.102;19.682;2022-11-27T03:42:37;100716.63;;;5.97;100.00
70930;BME280;58588;48.102;19.682;2022-11-27T03:45:51;100714.44;;;5.90;100.00
70930;BME280;58588;48.102;19.682;2022-11-27T03:49:01;100715.78;;;5.74;100.00
70930;BME280;58588;48.102;19.682;2022-11-27T03:52:13;100713.38;;;5.71;100.00
70930;BME280;58588;48.102;19.682;2022-11-27T03:55:21;100719.97;;;5.55;100.00
70930;BME280;58588;48.102;19.682;2022-11-27T03:58:30;100717.28;;;5.67;100.00
70930;BME280;58588;48.102;19.682;2022-11-27T04:01:35;100730.38;;;5.70;100.00
70930;BME280;58588;48.102;19.682;2022-11-27T04:04:39;100732.22;;;5.69;100.00
70930;BME280;58588;48.102;19.682;2022-11-27T04:07:41;100728.25;;;5.52;100.00
70930;BME280;58588;48.102;19.682;2022-11-27T04:10:43;100731.00;;;5.62;100.00
70930;BME280;58588;48.102;19.682;2022-11-27T04:13:45;100734.81;;;5.48;100.00
70930;BME280;58588;48.102;19.682;2022-11-27T04:16:47;100729.09;;;5.53;100.00
70930;BME280;58588;48.102;19.682;2022-11-27T04:19:51;100735.66;;;5.49;100.00
70930;BME280;58588;48.102;19.682;2022-11-27T04:22:53;100734.94;;;5.35;100.00
70930;BME280;58588;48.102;19.682;2022-11-27T04:25:55;100723.75;;;5.42;100.00
70930;BME280;58588;48.102;19.682;2022-11-27T04:28:57;100716.09;;;5.37;100.00
70930;BME280;58588;48.102;19.682;2022-11-27T04:31:59;100716.31;;;5.45;100.00
70930;BME280;58588;48.102;19.682;2022-11-27T04:35:02;100715.94;;;5.50;100.00
70930;BME280;58588;48.102;19.682;2022-11-27T04:38:04;100710.97;;;5.56;100.00
70930;BME280;58588;48.102;19.682;2022-11-27T04:41:09;100720.69;;;5.57;100.00
70930;BME280;58588;48.102;19.682;2022-11-27T04:44:11;100718.38;;;5.64;100.00
70930;BME280;58588;48.102;19.682;2022-11-27T04:47:13;100709.13;;;5.68;100.00
70930;BME280;58588;48.102;19.682;2022-11-27T04:50:17;100716.28;;;5.68;100.00
70930;BME280;58588;48.102;19.682;2022-11-27T04:53:19;100725.16;;;5.68;100.00
70930;BME280;58588;48.102;19.682;2022-11-27T04:56:21;100720.56;;;5.70;100.00
70930;BME280;58588;48.102;19.682;2022-11-27T04:59:23;100721.41;;;5.71;100.00
70930;BME280;58588;48.102;19.682;2022-11-27T05:02:25;100713.75;;;5.66;100.00
70930;BME280;58588;48.102;19.682;2022-11-27T05:05:28;100719.81;;;5.79;100.00
70930;BME280;58588;48.102;19.682;2022-11-27T05:08:31;100708.25;;;5.79;100.00
70930;BME280;58588;48.102;19.682;2022-11-27T05:11:33;100716.63;;;5.74;100.00
70930;BME280;58588;48.102;19.682;2022-11-27T05:14:35;100721.00;;;5.75;100.00
70930;BME280;58588;48.102;19.682;2022-11-27T05:17:37;100711.78;;;5.68;100.00
70930;BME280;58588;48.102;19.682;2022-11-27T05:20:40;100724.31;;;5.68;100.00
70930;BME280;58588;48.102;19.682;2022-11-27T05:23:42;100719.69;;;5.70;100.00
70930;BME280;58588;48.102;19.682;2022-11-27T05:26:45;100720.31;;;5.73;100.00
70930;BME280;58588;48.102;19.682;2022-11-27T05:29:47;100716.13;;;5.80;100.00
70930;BME280;58588;48.102;19.682;2022-11-27T05:32:49;100711.78;;;5.79;100.00
70930;BME280;58588;48.102;19.682;2022-11-27T05:35:52;100722.25;;;5.82;100.00
70930;BME280;58588;48.102;19.682;2022-11-27T05:38:54;100725.50;;;5.75;100.00
70930;BME280;58588;48.102;19.682;2022-11-27T05:42:03;100729.81;;;5.66;100.00
70930;BME280;58588;48.102;19.682;2022-11-27T05:45:06;100728.31;;;5.73;100.00
70930;BME280;58588;48.102;19.682;2022-11-27T05:48:08;100734.16;;;5.78;100.00
70930;BME280;58588;48.102;19.682;2022-11-27T05:51:12;100727.31;;;5.85;100.00
70930;BME280;58588;48.102;19.682;2022-11-27T05:54:14;100735.63;;;5.82;100.00
70930;BME280;58588;48.102;19.682;2022-11-27T05:57:16;100731.72;;;5.75;100.00
70930;BME280;58588;48.102;19.682;2022-11-27T06:00:18;100730.50;;;5.79;100.00
70930;BME280;58588;48.102;19.682;2022-11-27T06:03:20;100732.09;;;5.82;100.00
70930;BME280;58588;48.102;19.682;2022-11-27T06:06:24;100730.78;;;5.76;100.00
70930;BME280;58588;48.102;19.682;2022-11-27T06:09:26;100733.53;;;5.75;100.00
70930;BME280;58588;48.102;19.682;2022-11-27T06:12:30;100731.00;;;5.73;100.00
70930;BME280;58588;48.102;19.682;2022-11-27T06:15:32;100725.16;;;5.79;100.00
70930;BME280;58588;48.102;19.682;2022-11-27T06:18:34;100727.59;;;5.71;100.00
70930;BME280;58588;48.102;19.682;2022-11-27T06:21:37;100722.84;;;5.75;100.00
70930;BME280;58588;48.102;19.682;2022-11-27T06:24:39;100725.09;;;5.58;100.00
70930;BME280;58588;48.102;19.682;2022-11-27T06:27:41;100726.88;;;5.69;100.00
70930;BME280;58588;48.102;19.682;2022-11-27T06:30:43;100724.59;;;5.64;100.00
70930;BME280;58588;48.102;19.682;2022-11-27T06:33:45;100725.91;;;5.70;100.00
70930;BME280;58588;48.102;19.682;2022-11-27T06:36:49;100733.91;;;5.81;100.00
70930;BME280;58588;48.102;19.682;2022-11-27T06:39:51;100728.16;;;5.86;100.00
70930;BME280;58588;48.102;19.682;2022-11-27T06:42:52;100742.06;;;5.91;100.00
70930;BME280;58588;48.102;19.682;2022-11-27T06:45:55;100727.69;;;5.92;100.00
70930;BME280;58588;48.102;19.682;2022-11-27T06:48:58;100741.09;;;5.92;100.00
70930;BME280;58588;48.102;19.682;2022-11-27T06:52:01;100739.50;;;6.01;100.00
70930;BME280;58588;48.102;19.682;2022-11-27T06:55:04;100731.19;;;6.04;100.00
70930;BME280;58588;48.102;19.682;2022-11-27T06:58:06;100733.03;;;6.03;100.00
70930;BME280;58588;48.102;19.682;2022-11-27T07:01:09;100732.66;;;6.08;100.00
70930;BME280;58588;48.102;19.682;2022-11-27T07:04:16;100729.84;;;6.09;100.00
70930;BME280;58588;48.102;19.682;2022-11-27T07:07:20;100732.53;;;6.09;100.00
70930;BME280;58588;48.102;19.682;2022-11-27T07:10:22;100730.06;;;6.17;100.00
70930;BME280;58588;48.102;19.682;2022-11-27T07:13:24;100728.88;;;6.10;100.00
70930;BME280;58588;48.102;19.682;2022-11-27T07:16:29;100727.06;;;6.00;100.00
70930;BME280;58588;48.102;19.682;2022-11-27T07:19:31;100735.34;;;6.08;100.00
70930;BME280;58588;48.102;19.682;2022-11-27T07:22:34;100730.50;;;6.02;100.00
70930;BME280;58588;48.102;19.682;2022-11-27T07:25:36;100741.66;;;6.07;100.00
70930;BME280;58588;48.102;19.682;2022-11-27T07:28:39;100748.09;;;6.04;100.00
70930;BME280;58588;48.102;19.682;2022-11-27T07:31:43;100740.41;;;6.11;100.00
70930;BME280;58588;48.102;19.682;2022-11-27T07:34:45;100744.94;;;6.10;100.00
70930;BME280;58588;48.102;19.682;2022-11-27T07:37:48;100757.47;;;6.10;100.00
70930;BME280;58588;48.102;19.682;2022-11-27T07:40:50;100748.56;;;6.21;100.00
70930;BME280;58588;48.102;19.682;2022-11-27T07:43:52;100743.81;;;6.24;100.00
70930;BME280;58588;48.102;19.682;2022-11-27T07:46:54;100739.78;;;6.30;100.00
70930;BME280;58588;48.102;19.682;2022-11-27T07:49:56;100734.84;;;6.35;100.00
70930;BME280;58588;48.102;19.682;2022-11-27T07:53:01;100740.34;;;6.33;100.00
70930;BME280;58588;48.102;19.682;2022-11-27T07:56:03;100736.97;;;6.31;100.00
70930;BME280;58588;48.102;19.682;2022-11-27T07:59:05;100742.50;;;6.39;100.00
70930;BME280;58588;48.102;19.682;2022-11-27T08:02:10;100739.78;;;6.30;100.00
70930;BME280;58588;48.102;19.682;2022-11-27T08:05:14;100740.69;;;6.40;100.00
70930;BME280;58588;48.102;19.682;2022-11-27T08:08:18;100740.00;;;6.27;100.00
70930;BME280;58588;48.102;19.682;2022-11-27T08:11:21;100739.13;;;6.37;100.00
70930;BME280;58588;48.102;19.682;2022-11-27T08:14:23;100750.41;;;6.41;100.00
70930;BME280;58588;48.102;19.682;2022-11-27T08:17:25;100739.66;;;6.52;100.00
70930;BME280;58588;48.102;19.682;2022-11-27T08:20:27;100745.19;;;6.39;100.00
70930;BME280;58588;48.102;19.682;2022-11-27T08:23:33;100751.25;;;6.41;100.00
70930;BME280;58588;48.102;19.682;2022-11-27T08:26:54;100747.59;;;6.54;100.00
70930;BME280;58588;48.102;19.682;2022-11-27T08:29:56;100754.69;;;6.43;100.00
70930;BME280;58588;48.102;19.682;2022-11-27T08:33:12;100746.50;;;6.45;100.00
70930;BME280;58588;48.102;19.682;2022-11-27T08:36:23;100747.78;;;6.62;100.00
70930;BME280;58588;48.102;19.682;2022-11-27T08:39:27;100751.31;;;6.62;100.00
70930;BME280;58588;48.102;19.682;2022-11-27T08:42:29;100746.47;;;6.56;100.00
70930;BME280;58588;48.102;19.682;2022-11-27T08:45:31;100745.88;;;6.74;100.00
70930;BME280;58588;48.102;19.682;2022-11-27T08:48:36;100752.16;;;6.63;100.00
70930;BME280;58588;48.102;19.682;2022-11-27T08:51:39;100760.47;;;6.60;100.00
70930;BME280;58588;48.102;19.682;2022-11-27T08:54:42;100753.59;;;6.67;100.00
70930;BME280;58588;48.102;19.682;2022-11-27T08:57:44;100759.00;;;6.56;100.00
70930;BME280;58588;48.102;19.682;2022-11-27T09:00:47;100761.41;;;6.59;100.00
70930;BME280;58588;48.102;19.682;2022-11-27T09:03:49;100759.72;;;6.58;100.00
70930;BME280;58588;48.102;19.682;2022-11-27T09:06:52;100770.56;;;6.56;100.00
70930;BME280;58588;48.102;19.682;2022-11-27T09:09:55;100771.94;;;6.51;100.00
70930;BME280;58588;48.102;19.682;2022-11-27T09:12:57;100776.00;;;6.34;100.00
70930;BME280;58588;48.102;19.682;2022-11-27T09:16:00;100775.31;;;6.32;100.00
70930;BME280;58588;48.102;19.682;2022-11-27T09:19:02;100766.16;;;6.34;100.00
70930;BME280;58588;48.102;19.682;2022-11-27T09:22:04;100774.66;;;6.39;100.00
70930;BME280;58588;48.102;19.682;2022-11-27T09:25:08;100775.47;;;6.51;100.00
70930;BME280;58588;48.102;19.682;2022-11-27T09:28:10;100772.25;;;6.36;100.00
70930;BME280;58588;48.102;19.682;2022-11-27T09:31:13;100771.84;;;6.41;100.00
70930;BME280;58588;48.102;19.682;2022-11-27T09:34:16;100772.28;;;6.25;100.00
70930;BME280;58588;48.102;19.682;2022-11-27T09:37:18;100773.88;;;6.16;100.00
70930;BME280;58588;48.102;19.682;2022-11-27T09:40:21;100776.69;;;6.15;100.00
70930;BME280;58588;48.102;19.682;2022-11-27T09:43:27;100775.53;;;6.29;100.00
70930;BME280;58588;48.102;19.682;2022-11-27T09:46:34;100768.97;;;6.33;100.00
70930;BME280;58588;48.102;19.682;2022-11-27T09:49:41;100774.81;;;6.27;100.00
70930;BME280;58588;48.102;19.682;2022-11-27T09:52:47;100773.72;;;6.29;100.00
70930;BME280;58588;48.102;19.682;2022-11-27T09:55:53;100770.19;;;6.29;100.00
70930;BME280;58588;48.102;19.682;2022-11-27T09:58:58;100773.34;;;6.34;100.00
70930;BME280;58588;48.102;19.682;2022-11-27T10:02:00;100765.53;;;6.42;100.00
70930;BME280;58588;48.102;19.682;2022-11-27T10:05:09;100760.94;;;6.33;100.00
70930;BME280;58588;48.102;19.682;2022-11-27T10:08:22;100756.78;;;6.29;100.00
70930;BME280;58588;48.102;19.682;2022-11-27T10:11:38;100760.31;;;6.29;100.00
70930;BME280;58588;48.102;19.682;2022-11-27T10:15:02;100755.94;;;6.28;100.00
70930;BME280;58588;48.102;19.682;2022-11-27T10:18:11;100752.56;;;6.47;100.00
70930;BME280;58588;48.102;19.682;2022-11-27T10:21:22;100757.22;;;6.45;100.00
70930;BME280;58588;48.102;19.682;2022-11-27T10:24:32;100750.13;;;6.55;100.00
70930;BME280;58588;48.102;19.682;2022-11-27T10:27:42;100746.94;;;6.61;100.00
70930;BME280;58588;48.102;19.682;2022-11-27T10:30:49;100747.97;;;6.70;100.00
70930;BME280;58588;48.102;19.682;2022-11-27T10:33:55;100743.59;;;6.69;100.00
70930;BME280;58588;48.102;19.682;2022-11-27T10:37:00;100738.94;;;6.71;100.00
70930;BME280;58588;48.102;19.682;2022-11-27T10:40:15;100737.25;;;6.70;100.00
70930;BME280;58588;48.102;19.682;2022-11-27T10:43:21;100728.63;;;6.66;100.00
70930;BME280;58588;48.102;19.682;2022-11-27T10:46:26;100736.72;;;6.76;100.00
70930;BME280;58588;48.102;19.682;2022-11-27T10:49:29;100731.50;;;6.75;100.00
70930;BME280;58588;48.102;19.682;2022-11-27T10:52:32;100728.03;;;6.63;100.00
70930;BME280;58588;48.102;19.682;2022-11-27T10:55:51;100732.63;;;6.72;100.00
70930;BME280;58588;48.102;19.682;2022-11-27T10:58:59;100728.97;;;6.73;100.00
70930;BME280;58588;48.102;19.682;2022-11-27T11:02:02;100729.06;;;6.71;100.00
70930;BME280;58588;48.102;19.682;2022-11-27T11:05:21;100729.53;;;6.56;100.00
70930;BME280;58588;48.102;19.682;2022-11-27T11:08:24;100721.38;;;6.57;100.00
70930;BME280;58588;48.102;19.682;2022-11-27T11:11:26;100722.75;;;6.73;100.00
70930;BME280;58588;48.102;19.682;2022-11-27T11:14:29;100718.56;;;6.59;100.00
70930;BME280;58588;48.102;19.682;2022-11-27T11:17:34;100723.53;;;6.63;100.00
70930;BME280;58588;48.102;19.682;2022-11-27T11:20:37;100727.91;;;6.64;100.00
70930;BME280;58588;48.102;19.682;2022-11-27T11:23:39;100719.53;;;6.58;100.00
70930;BME280;58588;48.102;19.682;2022-11-27T11:26:45;100707.78;;;6.49;100.00
70930;BME280;58588;48.102;19.682;2022-11-27T11:29:51;100712.59;;;6.76;100.00
70930;BME280;58588;48.102;19.682;2022-11-27T11:32:59;100711.22;;;6.82;100.00
70930;BME280;58588;48.102;19.682;2022-11-27T11:36:07;100711.97;;;6.84;100.00
70930;BME280;58588;48.102;19.682;2022-11-27T11:39:17;100707.03;;;6.89;100.00
70930;BME280;58588;48.102;19.682;2022-11-27T11:42:24;100709.78;;;6.78;100.00
70930;BME280;58588;48.102;19.682;2022-11-27T11:45:29;100697.44;;;6.86;100.00
70930;BME280;58588;48.102;19.682;2022-11-27T11:48:32;100692.22;;;6.85;100.00
70930;BME280;58588;48.102;19.682;2022-11-27T11:52:03;100688.09;;;6.81;100.00
70930;BME280;58588;48.102;19.682;2022-11-27T11:55:15;100683.00;;;6.78;100.00
70930;BME280;58588;48.102;19.682;2022-11-27T11:58:42;100682.09;;;6.67;100.00
70930;BME280;58588;48.102;19.682;2022-11-27T12:02:19;100674.22;;;6.66;100.00
70930;BME280;58588;48.102;19.682;2022-11-27T12:05:31;100672.56;;;6.75;100.00
70930;BME280;58588;48.102;19.682;2022-11-27T12:08:52;100663.19;;;6.90;100.00
70930;BME280;58588;48.102;19.682;2022-11-27T12:12:00;100661.53;;;6.98;100.00
70930;BME280;58588;48.102;19.682;2022-11-27T12:15:09;100653.63;;;6.97;100.00
70930;BME280;58588;48.102;19.682;2022-11-27T12:18:21;100655.63;;;7.05;100.00
70930;BME280;58588;48.102;19.682;2022-11-27T12:21:30;100652.91;;;6.95;100.00
70930;BME280;58588;48.102;19.682;2022-11-27T12:24:43;100644.06;;;7.04;100.00
70930;BME280;58588;48.102;19.682;2022-11-27T12:28:00;100645.38;;;6.79;100.00
70930;BME280;58588;48.102;19.682;2022-11-27T12:31:13;100636.16;;;6.72;100.00
70930;BME280;58588;48.102;19.682;2022-11-27T12:34:31;100634.44;;;6.71;100.00
70930;BME280;58588;48.102;19.682;2022-11-27T12:37:44;100633.34;;;7.04;100.00
70930;BME280;58588;48.102;19.682;2022-11-27T12:40:59;100629.63;;;6.95;100.00
70930;BME280;58588;48.102;19.682;2022-11-27T12:44:11;100635.56;;;6.99;100.00
70930;BME280;58588;48.102;19.682;2022-11-27T12:47:21;100632.19;;;6.97;100.00
70930;BME280;58588;48.102;19.682;2022-11-27T12:50:33;100634.19;;;6.74;100.00
70930;BME280;58588;48.102;19.682;2022-11-27T12:53:41;100632.22;;;6.76;100.00
70930;BME280;58588;48.102;19.682;2022-11-27T12:56:45;100631.66;;;6.73;100.00
70930;BME280;58588;48.102;19.682;2022-11-27T12:59:52;100624.78;;;6.80;100.00
70930;BME280;58588;48.102;19.682;2022-11-27T13:03:03;100623.22;;;6.56;100.00
70930;BME280;58588;48.102;19.682;2022-11-27T13:06:17;100622.56;;;6.64;100.00
70930;BME280;58588;48.102;19.682;2022-11-27T13:09:26;100624.16;;;6.66;100.00
70930;BME280;58588;48.102;19.682;2022-11-27T13:12:52;100626.09;;;6.64;100.00
70930;BME280;58588;48.102;19.682;2022-11-27T13:16:03;100625.91;;;6.56;100.00
70930;BME280;58588;48.102;19.682;2022-11-27T13:19:12;100621.78;;;6.52;100.00
70930;BME280;58588;48.102;19.682;2022-11-27T13:22:21;100613.78;;;6.31;100.00
70930;BME280;58588;48.102;19.682;2022-11-27T13:25:27;100617.44;;;6.30;100.00
70930;BME280;58588;48.102;19.682;2022-11-27T13:28:36;100623.50;;;6.32;100.00
70930;BME280;58588;48.102;19.682;2022-11-27T13:31:42;100632.91;;;6.27;100.00
70930;BME280;58588;48.102;19.682;2022-11-27T13:34:46;100634.06;;;6.34;100.00
70930;BME280;58588;48.102;19.682;2022-11-27T13:37:56;100622.19;;;6.27;100.00
70930;BME280;58588;48.102;19.682;2022-11-27T13:40:59;100629.09;;;6.29;100.00
70930;BME280;58588;48.102;19.682;2022-11-27T13:44:20;100618.06;;;6.23;100.00
70930;BME280;58588;48.102;19.682;2022-11-27T13:47:25;100628.94;;;6.42;100.00
70930;BME280;58588;48.102;19.682;2022-11-27T13:50:28;100619.84;;;6.33;100.00
70930;BME280;58588;48.102;19.682;2022-11-27T13:53:35;100621.59;;;6.44;100.00
70930;BME280;58588;48.102;19.682;2022-11-27T13:56:37;100624.22;;;6.34;100.00
70930;BME280;58588;48.102;19.682;2022-11-27T13:59:40;100628.06;;;6.41;100.00
70930;BME280;58588;48.102;19.682;2022-11-27T14:02:44;100619.19;;;6.41;100.00
70930;BME280;58588;48.102;19.682;2022-11-27T14:05:46;100620.75;;;6.23;100.00
70930;BME280;58588;48.102;19.682;2022-11-27T14:08:52;100612.34;;;6.27;100.00
70930;BME280;58588;48.102;19.682;2022-11-27T14:11:55;100615.09;;;6.37;100.00
70930;BME280;58588;48.102;19.682;2022-11-27T14:15:04;100620.13;;;6.30;100.00
70930;BME280;58588;48.102;19.682;2022-11-27T14:18:15;100615.53;;;6.21;100.00
70930;BME280;58588;48.102;19.682;2022-11-27T14:21:24;100614.88;;;6.29;100.00
70930;BME280;58588;48.102;19.682;2022-11-27T14:24:36;100613.69;;;6.22;100.00
70930;BME280;58588;48.102;19.682;2022-11-27T14:27:40;100619.75;;;6.24;100.00
70930;BME280;58588;48.102;19.682;2022-11-27T14:30:45;100623.63;;;6.10;100.00
70930;BME280;58588;48.102;19.682;2022-11-27T14:33:49;100625.59;;;6.08;100.00
70930;BME280;58588;48.102;19.682;2022-11-27T14:36:51;100620.59;;;6.03;100.00
70930;BME280;58588;48.102;19.682;2022-11-27T14:39:57;100624.94;;;5.95;100.00
70930;BME280;58588;48.102;19.682;2022-11-27T14:43:06;100620.66;;;5.92;100.00
70930;BME280;58588;48.102;19.682;2022-11-27T14:46:14;100627.66;;;6.04;100.00
70930;BME280;58588;48.102;19.682;2022-11-27T14:49:18;100622.44;;;6.03;100.00
70930;BME280;58588;48.102;19.682;2022-11-27T14:52:20;100627.78;;;6.03;100.00
70930;BME280;58588;48.102;19.682;2022-11-27T14:55:27;100629.44;;;6.15;100.00
70930;BME280;58588;48.102;19.682;2022-11-27T14:58:30;100626.06;;;6.13;100.00
70930;BME280;58588;48.102;19.682;2022-11-27T15:01:34;100630.88;;;6.19;100.00
70930;BME280;58588;48.102;19.682;2022-11-27T15:04:38;100629.72;;;6.12;100.00
70930;BME280;58588;48.102;19.682;2022-11-27T15:07:40;100627.03;;;6.12;100.00
70930;BME280;58588;48.102;19.682;2022-11-27T15:10:44;100629.97;;;6.30;100.00
70930;BME280;58588;48.102;19.682;2022-11-27T15:13:51;100619.75;;;6.24;100.00
70930;BME280;58588;48.102;19.682;2022-11-27T15:16:56;100627.78;;;6.03;100.00
70930;BME280;58588;48.102;19.682;2022-11-27T15:20:03;100623.34;;;5.92;100.00
70930;BME280;58588;48.102;19.682;2022-11-27T15:23:14;100635.97;;;5.90;100.00
70930;BME280;58588;48.102;19.682;2022-11-27T15:26:32;100630.00;;;5.86;100.00
70930;BME280;58588;48.102;19.682;2022-11-27T15:30:00;100618.81;;;5.93;100.00
70930;BME280;58588;48.102;19.682;2022-11-27T15:33:02;100630.84;;;5.87;100.00
70930;BME280;58588;48.102;19.682;2022-11-27T15:36:14;100606.88;;;5.64;100.00
70930;BME280;58588;48.102;19.682;2022-11-27T15:39:20;100634.47;;;5.65;100.00
70930;BME280;58588;48.102;19.682;2022-11-27T15:42:24;100622.09;;;5.64;100.00
70930;BME280;58588;48.102;19.682;2022-11-27T15:45:28;100630.47;;;5.59;100.00
70930;BME280;58588;48.102;19.682;2022-11-27T15:48:31;100627.94;;;5.58;100.00
70930;BME280;58588;48.102;19.682;2022-11-27T15:51:32;100630.47;;;5.59;100.00
70930;BME280;58588;48.102;19.682;2022-11-27T15:54:35;100630.84;;;5.55;100.00
70930;BME280;58588;48.102;19.682;2022-11-27T15:57:38;100635.50;;;5.53;100.00